createdAt,value
2019-05-02T00:00:31.150Z,0.00
2019-05-02T00:01:31.070Z,0.00
2019-05-02T00:02:30.990Z,0.00
2019-05-02T00:03:30.910Z,0.00
2019-05-02T00:04:30.824Z,0.00
2019-05-02T00:05:32.135Z,0.00
2019-05-02T00:06:30.666Z,0.00
2019-05-02T00:07:30.581Z,0.00
2019-05-02T00:08:33.156Z,0.00
2019-05-02T00:09:33.311Z,0.00
2019-05-02T00:10:30.337Z,0.00
2019-05-02T00:11:30.253Z,0.00
2019-05-02T00:12:37.334Z,0.00
2019-05-02T00:14:34.462Z,0.00
2019-05-02T00:15:38.253Z,0.00
2019-05-02T00:17:38.657Z,0.00
2019-05-02T00:18:39.043Z,0.00
2019-05-02T00:20:42.866Z,0.00
2019-05-02T00:21:43.191Z,0.00
2019-05-02T00:23:36.002Z,0.00
2019-05-02T00:24:39.185Z,0.00
2019-05-02T00:26:39.722Z,0.00
2019-05-02T00:27:39.630Z,0.00
2019-05-02T00:29:43.925Z,0.00
2019-05-02T00:30:43.830Z,0.00
2019-05-02T00:32:48.115Z,0.00
2019-05-02T00:33:48.029Z,0.00
2019-05-02T00:34:47.948Z,0.00
2019-05-02T00:35:47.865Z,0.00
2019-05-02T00:36:47.782Z,0.00
2019-05-02T00:37:47.701Z,0.00
2019-05-02T00:38:47.620Z,0.00
2019-05-02T00:39:49.183Z,0.00
2019-05-02T00:40:47.453Z,0.00
2019-05-02T00:41:47.369Z,0.00
2019-05-02T00:42:47.291Z,0.00
2019-05-02T00:43:47.211Z,0.00
2019-05-02T00:44:48.243Z,0.00
2019-05-02T00:45:47.047Z,0.00
2019-05-02T00:46:46.966Z,0.00
2019-05-02T00:47:47.766Z,0.00
2019-05-02T00:48:46.801Z,0.00
2019-05-02T00:49:46.719Z,0.00
2019-05-02T00:50:50.942Z,0.00
2019-05-02T00:51:46.556Z,0.00
2019-05-02T00:52:46.476Z,0.00
2019-05-02T00:53:48.408Z,0.00
2019-05-02T00:54:46.312Z,0.00
2019-05-02T00:55:46.230Z,0.00
2019-05-02T00:56:46.146Z,0.00
2019-05-02T00:57:46.062Z,0.00
2019-05-02T00:58:45.986Z,0.00
2019-05-02T00:59:45.901Z,0.00
2019-05-02T01:00:48.623Z,0.00
2019-05-02T01:01:45.736Z,0.00
2019-05-02T01:02:45.656Z,0.00
2019-05-02T01:03:47.194Z,0.00
2019-05-02T01:04:45.491Z,0.00
2019-05-02T01:05:45.411Z,0.00
2019-05-02T01:06:49.394Z,0.00
2019-05-02T01:07:45.243Z,0.00
2019-05-02T01:08:45.167Z,0.00
2019-05-02T01:09:46.778Z,0.00
2019-05-02T01:10:45.002Z,0.00
2019-05-02T01:11:44.916Z,0.00
2019-05-02T01:12:46.187Z,0.00
2019-05-02T01:13:44.749Z,0.00
2019-05-02T01:14:44.676Z,0.00
2019-05-02T01:15:45.936Z,0.00
2019-05-02T01:16:44.504Z,0.00
2019-05-02T01:17:44.425Z,0.00
2019-05-02T01:18:44.339Z,0.00
2019-05-02T01:19:47.223Z,0.00
2019-05-02T01:20:44.177Z,0.00
2019-05-02T01:21:44.093Z,0.00
2019-05-02T01:22:47.057Z,0.00
2019-05-02T01:23:43.932Z,0.00
2019-05-02T01:24:43.850Z,0.00
2019-05-02T01:25:47.385Z,0.00
2019-05-02T01:26:43.683Z,0.00
2019-05-02T01:27:43.608Z,0.00
2019-05-02T01:28:43.518Z,0.00
2019-05-02T01:29:43.439Z,0.00
2019-05-02T01:30:43.883Z,0.00
2019-05-02T01:31:43.271Z,0.00
2019-05-02T01:32:43.191Z,0.00
2019-05-02T01:33:43.630Z,0.00
2019-05-02T01:34:43.024Z,0.00
2019-05-02T01:35:42.942Z,0.00
2019-05-02T01:36:42.862Z,0.00
2019-05-02T01:37:42.783Z,0.00
2019-05-02T01:38:42.695Z,0.00
2019-05-02T01:39:43.968Z,0.00
2019-05-02T01:40:42.533Z,0.00
2019-05-02T01:41:42.450Z,0.00
2019-05-02T01:42:44.432Z,0.00
2019-05-02T01:43:42.284Z,0.00
2019-05-02T01:44:42.199Z,0.00
2019-05-02T01:45:46.602Z,0.00
2019-05-02T01:46:42.034Z,0.00
2019-05-02T01:47:41.955Z,0.00
2019-05-02T01:48:45.633Z,0.00
2019-05-02T01:49:41.788Z,0.00
2019-05-02T01:50:41.710Z,0.00
2019-05-02T01:51:47.024Z,0.00
2019-05-02T01:52:41.542Z,0.00
2019-05-02T01:53:41.457Z,0.00
2019-05-02T01:54:45.730Z,0.00
2019-05-02T01:55:41.294Z,0.00
2019-05-02T01:56:41.209Z,0.00
2019-05-02T01:57:44.788Z,0.00
2019-05-02T01:58:41.048Z,0.00
2019-05-02T01:59:40.964Z,0.00
2019-05-02T02:00:44.702Z,0.00
2019-05-02T02:01:40.798Z,0.00
2019-05-02T02:02:40.717Z,0.00
2019-05-02T02:03:45.533Z,0.00
2019-05-02T02:04:40.550Z,0.00
2019-05-02T02:05:40.469Z,0.00
2019-05-02T02:06:43.379Z,0.00
2019-05-02T02:07:40.302Z,0.00
2019-05-02T02:08:40.245Z,0.00
2019-05-02T02:09:44.145Z,0.00
2019-05-02T02:10:40.056Z,0.00
2019-05-02T02:11:39.975Z,0.00
2019-05-02T02:12:42.987Z,0.00
2019-05-02T02:13:39.810Z,0.00
2019-05-02T02:14:39.730Z,0.00
2019-05-02T02:15:39.646Z,0.00
2019-05-02T02:16:40.482Z,0.00
2019-05-02T02:17:39.478Z,0.00
2019-05-02T02:18:39.396Z,0.00
2019-05-02T02:19:40.643Z,0.00
2019-05-02T02:20:39.228Z,0.00
2019-05-02T02:21:39.147Z,0.00
2019-05-02T02:22:40.995Z,0.00
2019-05-02T02:23:38.979Z,0.00
2019-05-02T02:24:38.900Z,0.00
2019-05-02T02:25:38.817Z,0.00
2019-05-02T02:26:38.732Z,0.00
2019-05-02T02:27:38.654Z,0.00
2019-05-02T02:28:38.569Z,0.00
2019-05-02T02:29:39.089Z,0.00
2019-05-02T02:30:38.405Z,0.00
2019-05-02T02:31:39.463Z,0.00
2019-05-02T02:32:38.236Z,0.00
2019-05-02T02:33:41.213Z,0.00
2019-05-02T02:34:38.073Z,0.00
2019-05-02T02:36:37.908Z,0.00
2019-05-02T02:37:37.826Z,0.00
2019-05-02T02:38:37.735Z,0.00
2019-05-02T02:39:37.660Z,0.00
2019-05-02T02:40:37.578Z,0.00
2019-05-02T02:41:37.496Z,0.00
2019-05-02T02:42:37.413Z,0.00
2019-05-02T02:43:37.329Z,0.00
2019-05-02T02:44:39.902Z,0.00
2019-05-02T02:45:37.162Z,0.00
2019-05-02T02:46:38.588Z,0.00
2019-05-02T02:47:36.996Z,0.00
2019-05-02T02:48:40.654Z,0.00
2019-05-02T02:49:36.836Z,0.00
2019-05-02T02:50:42.829Z,0.00
2019-05-02T02:51:36.666Z,0.00
2019-05-02T02:52:37.953Z,0.00
2019-05-02T02:53:36.501Z,0.00
2019-05-02T02:54:43.014Z,0.00
2019-05-02T02:55:36.332Z,0.00
2019-05-02T02:56:40.452Z,0.00
2019-05-02T02:57:36.167Z,0.00
2019-05-02T02:58:44.565Z,0.00
2019-05-02T02:59:36.003Z,0.00
2019-05-02T03:00:41.444Z,0.00
2019-05-02T03:01:35.838Z,0.00
2019-05-02T03:02:35.760Z,0.00
2019-05-02T03:03:35.953Z,0.00
2019-05-02T03:04:35.590Z,0.00
2019-05-02T03:05:35.507Z,0.00
2019-05-02T03:06:38.396Z,0.00
2019-05-02T03:07:35.341Z,0.00
2019-05-02T03:08:44.643Z,0.00
2019-05-02T03:09:35.178Z,0.00
2019-05-02T03:10:39.993Z,0.00
2019-05-02T03:11:35.013Z,0.00
2019-05-02T03:12:36.158Z,0.00
2019-05-02T03:13:50.947Z,0.00
2019-05-02T03:14:41.125Z,0.00
2019-05-02T03:15:34.682Z,0.00
2019-05-02T03:16:34.610Z,0.00
2019-05-02T03:17:34.516Z,0.00
2019-05-02T03:18:40.706Z,0.00
2019-05-02T03:19:34.351Z,0.00
2019-05-02T03:20:40.134Z,0.00
2019-05-02T03:21:34.186Z,0.00
2019-05-02T03:22:40.757Z,0.00
2019-05-02T03:23:34.017Z,0.00
2019-05-02T03:24:36.540Z,4.00
2019-05-02T03:25:49.967Z,4.00
2019-05-02T03:26:33.773Z,4.00
2019-05-02T03:27:37.520Z,4.00
2019-05-02T03:28:33.606Z,4.00
2019-05-02T03:29:41.407Z,8.00
2019-05-02T03:30:37.203Z,4.00
2019-05-02T03:31:33.381Z,8.00
2019-05-02T03:32:35.947Z,8.00
2019-05-02T03:33:52.190Z,8.00
2019-05-02T03:34:47.169Z,8.00
2019-05-02T03:35:42.550Z,12.00
2019-05-02T03:36:36.456Z,12.00
2019-05-02T03:37:32.863Z,16.00
2019-05-02T03:38:35.267Z,20.00
2019-05-02T03:39:32.717Z,24.00
2019-05-02T03:40:39.194Z,24.00
2019-05-02T03:41:32.525Z,28.00
2019-05-02T03:42:43.758Z,32.00
2019-05-02T03:43:32.364Z,36.00
2019-05-02T03:44:32.320Z,40.00
2019-05-02T03:45:39.956Z,44.00
2019-05-02T03:46:32.110Z,48.00
2019-05-02T03:47:37.023Z,56.00
2019-05-02T03:48:31.949Z,64.00
2019-05-02T03:49:31.864Z,68.00
2019-05-02T03:50:34.916Z,76.00
2019-05-02T03:51:31.699Z,84.00
2019-05-02T03:52:36.800Z,92.00
2019-05-02T03:53:31.529Z,100.00
2019-05-02T03:54:31.446Z,108.00
2019-05-02T03:55:33.884Z,116.00
2019-05-02T03:56:31.281Z,128.00
2019-05-02T03:57:33.440Z,136.00
2019-05-02T03:58:31.113Z,148.00
2019-05-02T03:59:38.917Z,160.00
2019-05-02T04:00:30.952Z,172.00
2019-05-02T04:01:34.547Z,184.00
2019-05-02T04:02:30.782Z,200.00
2019-05-02T04:03:34.022Z,212.00
2019-05-02T04:04:30.618Z,224.00
2019-05-02T04:05:33.718Z,236.00
2019-05-02T04:06:30.453Z,248.00
2019-05-02T04:07:39.614Z,264.00
2019-05-02T04:08:30.284Z,276.00
2019-05-02T04:09:32.115Z,288.00
2019-05-02T04:10:30.118Z,304.00
2019-05-02T04:11:38.348Z,320.00
2019-05-02T04:12:32.796Z,336.00
2019-05-02T04:13:35.466Z,348.00
2019-05-02T04:14:37.819Z,360.00
2019-05-02T04:15:35.104Z,372.00
2019-05-02T04:16:29.621Z,388.00
2019-05-02T04:17:35.274Z,404.00
2019-05-02T04:18:29.452Z,416.00
2019-05-02T04:19:34.791Z,436.00
2019-05-02T04:20:29.284Z,452.00
2019-05-02T04:21:29.198Z,468.00
2019-05-02T04:22:29.119Z,488.00
2019-05-02T04:23:29.918Z,504.00
2019-05-02T04:24:28.954Z,524.00
2019-05-02T04:25:33.968Z,540.00
2019-05-02T04:26:28.786Z,540.00
2019-05-02T04:27:34.078Z,556.00
2019-05-02T04:28:28.620Z,576.00
2019-05-02T04:29:31.205Z,604.00
2019-05-02T04:30:28.453Z,628.00
2019-05-02T04:31:31.718Z,644.00
2019-05-02T04:32:28.286Z,660.00
2019-05-02T04:33:29.197Z,684.00
2019-05-02T04:34:28.118Z,696.00
2019-05-02T04:35:28.806Z,712.00
2019-05-02T04:36:27.955Z,736.00
2019-05-02T04:37:27.870Z,744.00
2019-05-02T04:38:39.282Z,756.00
2019-05-02T04:39:28.595Z,772.00
2019-05-02T04:40:28.331Z,776.00
2019-05-02T04:41:30.713Z,792.00
2019-05-02T04:42:29.387Z,824.00
2019-05-02T04:43:28.695Z,836.00
2019-05-02T04:44:32.301Z,856.00
2019-05-02T04:45:38.438Z,868.00
2019-05-02T04:46:30.971Z,880.00
2019-05-02T04:47:29.088Z,896.00
2019-05-02T04:48:28.474Z,912.00
2019-05-02T04:49:29.918Z,932.00
2019-05-02T04:50:29.482Z,952.00
2019-05-02T04:51:30.830Z,976.00
2019-05-02T04:52:28.820Z,996.00
2019-05-02T04:53:36.831Z,1004.00
2019-05-02T04:54:31.839Z,1020.00
2019-05-02T04:55:32.354Z,1040.00
2019-05-02T04:56:28.323Z,1056.00
2019-05-02T04:57:35.522Z,1068.00
2019-05-02T04:58:29.598Z,1088.00
2019-05-02T04:59:28.499Z,1100.00
2019-05-02T05:00:28.389Z,1116.00
2019-05-02T05:01:33.045Z,1132.00
2019-05-02T05:02:34.225Z,1144.00
2019-05-02T05:03:25.708Z,1152.00
2019-05-02T05:04:27.632Z,1164.00
2019-05-02T05:05:28.285Z,1172.00
2019-05-02T05:06:27.591Z,1188.00
2019-05-02T05:07:25.388Z,1200.00
2019-05-02T05:08:26.505Z,1216.00
2019-05-02T05:09:27.724Z,1228.00
2019-05-02T05:10:27.588Z,1236.00
2019-05-02T05:11:25.118Z,1248.00
2019-05-02T05:12:24.961Z,1268.00
2019-05-02T05:13:26.566Z,1276.00
2019-05-02T05:14:24.798Z,1296.00
2019-05-02T05:15:37.168Z,1312.00
2019-05-02T05:16:24.629Z,1332.00
2019-05-02T05:17:25.064Z,1348.00
2019-05-02T05:18:24.466Z,1364.00
2019-05-02T05:19:28.757Z,1376.00
2019-05-02T05:20:24.310Z,1396.00
2019-05-02T05:21:25.019Z,1412.00
2019-05-02T05:22:24.136Z,1424.00
2019-05-02T05:23:24.052Z,1436.00
2019-05-02T05:24:24.997Z,1452.00
2019-05-02T05:25:23.885Z,1460.00
2019-05-02T05:26:23.804Z,1476.00
2019-05-02T05:27:23.722Z,1484.00
2019-05-02T05:28:23.638Z,1504.00
2019-05-02T05:29:23.557Z,1512.00
2019-05-02T05:30:23.475Z,1520.00
2019-05-02T05:31:24.529Z,1532.00
2019-05-02T05:32:23.306Z,1548.00
2019-05-02T05:33:23.225Z,1568.00
2019-05-02T05:34:28.532Z,1580.00
2019-05-02T05:35:23.061Z,1584.00
2019-05-02T05:36:29.266Z,1596.00
2019-05-02T05:37:22.895Z,1608.00
2019-05-02T05:38:27.491Z,1608.00
2019-05-02T05:39:22.743Z,1616.00
2019-05-02T05:40:27.543Z,1624.00
2019-05-02T05:41:23.249Z,1632.00
2019-05-02T05:42:23.467Z,1636.00
2019-05-02T05:43:22.402Z,1640.00
2019-05-02T05:44:23.291Z,1640.00
2019-05-02T05:45:22.237Z,1660.00
2019-05-02T05:46:22.156Z,1676.00
2019-05-02T05:47:22.072Z,1624.00
2019-05-02T05:48:21.991Z,1664.00
2019-05-02T05:49:21.973Z,1668.00
2019-05-02T05:50:21.822Z,1680.00
2019-05-02T05:51:21.742Z,1696.00
2019-05-02T05:52:21.662Z,1720.00
2019-05-02T05:53:24.459Z,1732.00
2019-05-02T05:54:21.494Z,1740.00
2019-05-02T05:55:24.417Z,1752.00
2019-05-02T05:56:21.328Z,1752.00
2019-05-02T05:57:21.358Z,1764.00
2019-05-02T05:58:21.188Z,1776.00
2019-05-02T05:59:22.293Z,1776.00
2019-05-02T06:00:23.174Z,1776.00
2019-05-02T06:01:26.148Z,1796.00
2019-05-02T06:02:20.842Z,1804.00
2019-05-02T06:03:20.759Z,1804.00
2019-05-02T06:04:24.012Z,1816.00
2019-05-02T06:05:20.597Z,1824.00
2019-05-02T06:06:23.150Z,1824.00
2019-05-02T06:07:20.434Z,1832.00
2019-05-02T06:08:20.354Z,1828.00
2019-05-02T06:09:20.266Z,1840.00
2019-05-02T06:10:20.185Z,1840.00
2019-05-02T06:11:21.788Z,1836.00
2019-05-02T06:12:20.023Z,1848.00
2019-05-02T06:13:27.601Z,1852.00
2019-05-02T06:15:24.253Z,1860.00
2019-05-02T06:16:24.152Z,1884.00
2019-05-02T06:18:28.548Z,1908.00
2019-05-02T06:19:28.353Z,1920.00
2019-05-02T06:21:32.677Z,1988.00
2019-05-02T06:22:32.583Z,2060.00
2019-05-02T06:24:25.856Z,2336.00
2019-05-02T06:25:34.360Z,2528.00
2019-05-02T06:27:30.534Z,2812.00
2019-05-02T06:28:29.980Z,2964.00
2019-05-02T06:30:34.295Z,2956.00
2019-05-02T06:31:38.235Z,2608.00
2019-05-02T06:33:38.506Z,2764.00
2019-05-02T06:34:46.016Z,3080.00
2019-05-02T06:36:42.741Z,2988.00
2019-05-02T06:37:45.353Z,2876.00
2019-05-02T06:39:46.942Z,3100.00
2019-05-02T06:40:46.857Z,3108.00
2019-05-02T06:42:52.181Z,2748.00
2019-05-02T06:43:52.089Z,2652.00
2019-05-02T06:45:56.411Z,2436.00
2019-05-02T06:46:59.178Z,2432.00
2019-05-02T06:49:00.621Z,2304.00
2019-05-02T06:50:01.061Z,2440.00
2019-05-02T06:52:04.861Z,2160.00
2019-05-02T06:53:09.572Z,2040.00
2019-05-02T06:55:09.076Z,1968.00
2019-05-02T06:56:12.781Z,2024.00
2019-05-02T06:58:13.273Z,2416.00
2019-05-02T06:59:18.326Z,2280.00
2019-05-02T07:01:21.400Z,1996.00
2019-05-02T07:02:17.395Z,2384.00
2019-05-02T07:04:10.642Z,2456.00
2019-05-02T07:05:10.557Z,2404.00
2019-05-02T07:07:14.878Z,2364.00
2019-05-02T07:08:14.888Z,2208.00
2019-05-02T07:10:20.014Z,1936.00
2019-05-02T07:11:18.993Z,2036.00
2019-05-02T07:13:23.316Z,2172.00
2019-05-02T07:14:24.074Z,2280.00
2019-05-02T07:16:37.850Z,1920.00
2019-05-02T07:17:32.049Z,1880.00
2019-05-02T07:19:31.749Z,2008.00
2019-05-02T07:20:35.249Z,2240.00
2019-05-02T07:22:38.826Z,2252.00
2019-05-02T07:23:35.890Z,2260.00
2019-05-02T07:25:43.937Z,2388.00
2019-05-02T07:26:40.122Z,2492.00
2019-05-02T07:28:45.517Z,2564.00
2019-05-02T07:29:44.335Z,2340.00
2019-05-02T07:31:48.895Z,2004.00
2019-05-02T07:32:48.550Z,1968.00
2019-05-02T07:34:52.361Z,2196.00
2019-05-02T07:35:55.138Z,2252.00
2019-05-02T07:37:56.580Z,2280.00
2019-05-02T07:38:57.518Z,2272.00
2019-05-02T07:41:00.798Z,2284.00
2019-05-02T07:42:05.993Z,2280.00
2019-05-02T07:43:56.252Z,2292.00
2019-05-02T07:44:53.864Z,2284.00
2019-05-02T07:47:02.494Z,2292.00
2019-05-02T07:48:01.175Z,2284.00
2019-05-02T07:50:05.271Z,2308.00
2019-05-02T07:52:15.624Z,2336.00
2019-05-02T07:53:15.556Z,2336.00
2019-05-02T07:55:19.820Z,2368.00
2019-05-02T07:56:19.736Z,2384.00
2019-05-02T07:58:24.050Z,2400.00
2019-05-02T07:59:25.180Z,2416.00
2019-05-02T08:01:28.253Z,2444.00
2019-05-02T08:02:28.177Z,2472.00
2019-05-02T08:03:29.499Z,2500.00
2019-05-02T08:04:27.996Z,2516.00
2019-05-02T08:05:27.917Z,2540.00
2019-05-02T08:06:35.126Z,2620.00
2019-05-02T08:07:34.172Z,2724.00
2019-05-02T08:08:29.854Z,2784.00
2019-05-02T08:09:27.596Z,2828.00
2019-05-02T08:10:27.517Z,2776.00
2019-05-02T08:11:27.438Z,2656.00
2019-05-02T08:12:27.357Z,2492.00
2019-05-02T08:13:27.276Z,2316.00
2019-05-02T08:14:29.324Z,2396.00
2019-05-02T08:15:27.117Z,2568.00
2019-05-02T08:16:27.570Z,2564.00
2019-05-02T08:17:26.957Z,2560.00
2019-05-02T08:18:30.248Z,2612.00
2019-05-02T08:19:26.804Z,2608.00
2019-05-02T08:20:26.721Z,2616.00
2019-05-02T08:21:27.275Z,2628.00
2019-05-02T08:22:26.562Z,2644.00
2019-05-02T08:23:27.845Z,2672.00
2019-05-02T08:24:26.400Z,2680.00
2019-05-02T08:25:26.322Z,2708.00
2019-05-02T08:26:26.241Z,2740.00
2019-05-02T08:27:29.303Z,2780.00
2019-05-02T08:28:26.079Z,2800.00
2019-05-02T08:29:28.735Z,2832.00
2019-05-02T08:30:25.924Z,2860.00
2019-05-02T08:31:25.843Z,2884.00
2019-05-02T08:32:25.761Z,2916.00
2019-05-02T08:33:29.468Z,2984.00
2019-05-02T08:34:25.619Z,3036.00
2019-05-02T08:35:27.975Z,2980.00
2019-05-02T08:36:25.449Z,2952.00
2019-05-02T08:37:25.364Z,2920.00
2019-05-02T08:38:25.294Z,2900.00
2019-05-02T08:39:31.432Z,2972.00
2019-05-02T08:40:25.129Z,2884.00
2019-05-02T08:41:25.051Z,2956.00
2019-05-02T08:42:27.851Z,2920.00
2019-05-02T08:43:24.891Z,2972.00
2019-05-02T08:44:24.808Z,2976.00
2019-05-02T08:45:24.730Z,2996.00
2019-05-02T08:46:24.659Z,3024.00
2019-05-02T08:47:28.577Z,3028.00
2019-05-02T08:48:24.522Z,3036.00
2019-05-02T08:49:24.417Z,3028.00
2019-05-02T08:50:27.199Z,3048.00
2019-05-02T08:51:24.258Z,3052.00
2019-05-02T08:52:24.180Z,3064.00
2019-05-02T08:53:24.100Z,3072.00
2019-05-02T08:54:28.028Z,3088.00
2019-05-02T08:55:23.947Z,3104.00
2019-05-02T08:56:23.868Z,3116.00
2019-05-02T08:57:23.973Z,3120.00
2019-05-02T08:58:23.703Z,3140.00
2019-05-02T08:59:24.620Z,3188.00
2019-05-02T09:00:23.550Z,3232.00
2019-05-02T09:01:34.551Z,3252.00
2019-05-02T09:02:25.897Z,3268.00
2019-05-02T09:03:23.309Z,3344.00
2019-05-02T09:04:24.158Z,3428.00
2019-05-02T09:05:23.156Z,3480.00
2019-05-02T09:06:24.136Z,3656.00
2019-05-02T09:07:23.063Z,4120.00
2019-05-02T09:08:22.921Z,4912.00
2019-05-02T09:09:27.910Z,5172.00
2019-05-02T09:10:22.760Z,4288.00
2019-05-02T09:11:22.695Z,3848.00
2019-05-02T09:12:22.986Z,3848.00
2019-05-02T09:13:25.999Z,4032.00
2019-05-02T09:14:22.451Z,5136.00
2019-05-02T09:15:22.476Z,4900.00
2019-05-02T09:16:28.653Z,4152.00
2019-05-02T09:17:34.907Z,4532.00
2019-05-02T09:18:25.334Z,5520.00
2019-05-02T09:19:26.290Z,6084.00
2019-05-02T09:20:23.662Z,6336.00
2019-05-02T09:21:22.063Z,5520.00
2019-05-02T09:22:22.195Z,4528.00
2019-05-02T09:23:22.832Z,3600.00
2019-05-02T09:24:23.907Z,4124.00
2019-05-02T09:25:22.074Z,5648.00
2019-05-02T09:26:33.236Z,6932.00
2019-05-02T09:27:22.490Z,6704.00
2019-05-02T09:28:22.475Z,5432.00
2019-05-02T09:29:22.244Z,4360.00
2019-05-02T09:30:22.718Z,4664.00
2019-05-02T09:31:22.645Z,5252.00
2019-05-02T09:32:22.763Z,5696.00
2019-05-02T09:33:22.634Z,6748.00
2019-05-02T09:34:25.008Z,6868.00
2019-05-02T09:35:22.936Z,5468.00
2019-05-02T09:36:22.628Z,5156.00
2019-05-02T09:37:22.660Z,5180.00
2019-05-02T09:38:22.200Z,5916.00
2019-05-02T09:39:22.515Z,6800.00
2019-05-02T09:40:22.218Z,6728.00
2019-05-02T09:41:22.106Z,5844.00
2019-05-02T09:42:21.714Z,6416.00
2019-05-02T09:43:20.187Z,6760.00
2019-05-02T09:44:20.110Z,6364.00
2019-05-02T09:45:20.035Z,5972.00
2019-05-02T09:46:21.707Z,5244.00
2019-05-02T09:47:22.118Z,6212.00
2019-05-02T09:48:22.725Z,7060.00
2019-05-02T09:49:21.892Z,8156.00
2019-05-02T09:50:26.671Z,7556.00
2019-05-02T09:51:21.505Z,6668.00
2019-05-02T09:52:19.552Z,6492.00
2019-05-02T09:53:24.067Z,6092.00
2019-05-02T09:54:19.341Z,6152.00
2019-05-02T09:55:19.263Z,5652.00
2019-05-02T09:56:19.187Z,5644.00
2019-05-02T09:57:19.113Z,6328.00
2019-05-02T09:58:21.384Z,5508.00
2019-05-02T09:59:27.712Z,6132.00
2019-05-02T10:00:18.878Z,6204.00
2019-05-02T10:01:18.799Z,6708.00
2019-05-02T10:02:18.725Z,7188.00
2019-05-02T10:03:18.647Z,7368.00
2019-05-02T10:04:18.572Z,6736.00
2019-05-02T10:05:18.502Z,6720.00
2019-05-02T10:06:18.450Z,6520.00
2019-05-02T10:07:18.341Z,5432.00
2019-05-02T10:08:18.262Z,5128.00
2019-05-02T10:09:18.821Z,5572.00
2019-05-02T10:10:18.108Z,6048.00
2019-05-02T10:11:22.466Z,6492.00
2019-05-02T10:12:17.962Z,6724.00
2019-05-02T10:13:17.877Z,6868.00
2019-05-02T10:14:17.797Z,6708.00
2019-05-02T10:15:17.804Z,6348.00
2019-05-02T10:16:18.014Z,5680.00
2019-05-02T10:17:18.448Z,5724.00
2019-05-02T10:18:19.678Z,6016.00
2019-05-02T10:19:17.415Z,6368.00
2019-05-02T10:20:17.342Z,6296.00
2019-05-02T10:21:17.423Z,6644.00
2019-05-02T10:22:17.189Z,6752.00
2019-05-02T10:23:19.674Z,7124.00
2019-05-02T10:24:17.078Z,7308.00
2019-05-02T10:25:16.959Z,7020.00
2019-05-02T10:26:20.048Z,6356.00
2019-05-02T10:27:16.803Z,5996.00
2019-05-02T10:28:16.731Z,4840.00
2019-05-02T10:29:22.851Z,4472.00
2019-05-02T10:30:16.614Z,4376.00
2019-05-02T10:31:16.509Z,4136.00
2019-05-02T10:32:16.806Z,3932.00
2019-05-02T10:33:16.351Z,4156.00
2019-05-02T10:34:17.769Z,4384.00
2019-05-02T10:35:16.195Z,4940.00
2019-05-02T10:36:19.821Z,5856.00
2019-05-02T10:37:16.047Z,6560.00
2019-05-02T10:38:19.414Z,7664.00
2019-05-02T10:39:16.046Z,8408.00
2019-05-02T10:40:17.260Z,8912.00
2019-05-02T10:41:15.733Z,10592.00
2019-05-02T10:42:15.653Z,10396.00
2019-05-02T10:43:15.580Z,10932.00
2019-05-02T10:44:15.506Z,9136.00
2019-05-02T10:45:16.819Z,10744.00
2019-05-02T10:46:15.354Z,8828.00
2019-05-02T10:47:15.276Z,8228.00
2019-05-02T10:48:24.837Z,7188.00
2019-05-02T10:49:15.121Z,7488.00
2019-05-02T10:50:15.049Z,7948.00
2019-05-02T10:51:14.970Z,10696.00
2019-05-02T10:52:14.899Z,10996.00
2019-05-02T10:53:15.796Z,11304.00
2019-05-02T10:54:14.744Z,10484.00
2019-05-02T10:55:14.667Z,9916.00
2019-05-02T10:56:14.597Z,10520.00
2019-05-02T10:57:14.515Z,10496.00
2019-05-02T10:58:14.447Z,10000.00
2019-05-02T10:59:14.366Z,9684.00
2019-05-02T11:00:14.289Z,7748.00
2019-05-02T11:01:14.212Z,6424.00
2019-05-02T11:02:14.137Z,5720.00
2019-05-02T11:03:14.061Z,5752.00
2019-05-02T11:04:13.986Z,5620.00
2019-05-02T11:05:16.797Z,5640.00
2019-05-02T11:06:13.837Z,6368.00
2019-05-02T11:07:17.067Z,7508.00
2019-05-02T11:08:13.685Z,8412.00
2019-05-02T11:09:16.748Z,9324.00
2019-05-02T11:10:13.534Z,10316.00
2019-05-02T11:11:13.457Z,10516.00
2019-05-02T11:12:16.472Z,11340.00
2019-05-02T11:13:13.312Z,8664.00
2019-05-02T11:14:13.234Z,9204.00
2019-05-02T11:15:13.153Z,9068.00
2019-05-02T11:16:13.081Z,10668.00
2019-05-02T11:17:16.530Z,8996.00
2019-05-02T11:18:12.929Z,9092.00
2019-05-02T11:19:13.270Z,9452.00
2019-05-02T11:20:12.782Z,10804.00
2019-05-02T11:21:12.706Z,14896.00
2019-05-02T11:22:12.631Z,13484.00
2019-05-02T11:23:12.818Z,12608.00
2019-05-02T11:24:14.377Z,12824.00
2019-05-02T11:25:12.406Z,9120.00
2019-05-02T11:26:14.509Z,10460.00
2019-05-02T11:27:12.784Z,8472.00
2019-05-02T11:28:12.403Z,8476.00
2019-05-02T11:29:12.229Z,9388.00
2019-05-02T11:30:12.437Z,12452.00
2019-05-02T11:31:12.447Z,10400.00
2019-05-02T11:32:12.765Z,9784.00
2019-05-02T11:33:13.438Z,8176.00
2019-05-02T11:34:12.311Z,8108.00
2019-05-02T11:35:12.210Z,7544.00
2019-05-02T11:36:13.623Z,7992.00
2019-05-02T11:37:12.111Z,9020.00
2019-05-02T11:38:13.580Z,10532.00
2019-05-02T11:39:20.567Z,12512.00
2019-05-02T11:40:12.868Z,16424.00
2019-05-02T11:41:11.950Z,19968.00
2019-05-02T11:42:12.462Z,17824.00
2019-05-02T11:43:11.569Z,24896.00
2019-05-02T11:44:12.090Z,19840.00
2019-05-02T11:45:12.116Z,13584.00
2019-05-02T11:46:12.097Z,14444.00
2019-05-02T11:47:12.636Z,16164.00
2019-05-02T11:48:11.933Z,21920.00
2019-05-02T11:49:12.215Z,13096.00
2019-05-02T11:50:11.901Z,39168.00
2019-05-02T11:51:12.707Z,72640.00
2019-05-02T11:52:11.872Z,26016.00
2019-05-02T11:53:25.492Z,84352.00
2019-05-02T11:54:12.931Z,69600.00
2019-05-02T11:55:10.291Z,52256.00
2019-05-02T11:56:11.627Z,13496.00
2019-05-02T11:57:11.697Z,11324.00
2019-05-02T11:58:12.557Z,10924.00
2019-05-02T11:59:12.922Z,10860.00
2019-05-02T12:00:09.909Z,11272.00
2019-05-02T12:01:09.833Z,12184.00
2019-05-02T12:02:17.420Z,15300.00
2019-05-02T12:03:09.873Z,17600.00
2019-05-02T12:04:12.982Z,95264.00
2019-05-02T12:05:09.488Z,17792.00
2019-05-02T12:06:14.066Z,31744.00
2019-05-02T12:07:09.525Z,11592.00
2019-05-02T12:08:09.741Z,13828.00
2019-05-02T12:09:09.214Z,19328.00
2019-05-02T12:10:09.135Z,21120.00
2019-05-02T12:11:13.237Z,22528.00
2019-05-02T12:12:08.986Z,59872.00
2019-05-02T12:13:12.035Z,24704.00
2019-05-02T12:14:08.855Z,37856.00
2019-05-02T12:15:08.781Z,18656.00
2019-05-02T12:16:08.708Z,8356.00
2019-05-02T12:17:08.643Z,10352.00
2019-05-02T12:18:08.572Z,5864.00
2019-05-02T12:19:12.129Z,5200.00
2019-05-02T12:20:08.428Z,4832.00
2019-05-02T12:21:08.358Z,4900.00
2019-05-02T12:22:12.921Z,5056.00
2019-05-02T12:23:09.176Z,5464.00
2019-05-02T12:24:08.144Z,5880.00
2019-05-02T12:25:08.072Z,6448.00
2019-05-02T12:26:08.001Z,6936.00
2019-05-02T12:27:07.939Z,7420.00
2019-05-02T12:28:07.858Z,8176.00
2019-05-02T12:29:07.779Z,8884.00
2019-05-02T12:30:07.708Z,10156.00
2019-05-02T12:31:08.069Z,12264.00
2019-05-02T12:32:07.588Z,15876.00
2019-05-02T12:33:07.509Z,21760.00
2019-05-02T12:34:07.465Z,26528.00
2019-05-02T12:35:07.362Z,105280.00
2019-05-02T12:36:07.275Z,54912.00
2019-05-02T12:37:07.222Z,17632.00
2019-05-02T12:38:07.124Z,13692.00
2019-05-02T12:39:07.057Z,13396.00
2019-05-02T12:40:06.996Z,14500.00
2019-05-02T12:41:19.511Z,81088.00
2019-05-02T12:42:07.090Z,18144.00
2019-05-02T12:43:06.767Z,10020.00
2019-05-02T12:44:06.704Z,11112.00
2019-05-02T12:45:06.691Z,17696.00
2019-05-02T12:46:06.594Z,42752.00
2019-05-02T12:47:06.492Z,11484.00
2019-05-02T12:48:06.416Z,11928.00
2019-05-02T12:49:06.343Z,11196.00
2019-05-02T12:50:06.269Z,13500.00
2019-05-02T12:51:06.260Z,76224.00
2019-05-02T12:52:06.145Z,56832.00
2019-05-02T12:53:06.068Z,16768.00
2019-05-02T12:54:06.006Z,11484.00
2019-05-02T12:55:05.937Z,9464.00
2019-05-02T12:56:05.850Z,11024.00
2019-05-02T12:57:05.775Z,5412.00
2019-05-02T12:58:05.707Z,4620.00
2019-05-02T12:59:05.639Z,4848.00
2019-05-02T13:00:05.590Z,5268.00
2019-05-02T13:01:05.513Z,5740.00
2019-05-02T13:02:05.423Z,5876.00
2019-05-02T13:03:05.444Z,5648.00
2019-05-02T13:04:05.293Z,5068.00
2019-05-02T13:05:05.257Z,4472.00
2019-05-02T13:06:05.153Z,4060.00
2019-05-02T13:07:05.130Z,3816.00
2019-05-02T13:08:05.039Z,3768.00
2019-05-02T13:09:04.932Z,3776.00
2019-05-02T13:10:04.847Z,3852.00